sensor_id;sensor_type;location;lat;lon;timestamp;P1;durP1;ratioP1;P2;durP2;ratioP2
4553;SDS011;2289;48.316;15.174;2023-11-21T00:01:03;6.97;;;3.37;;
4553;SDS011;2289;48.316;15.174;2023-11-21T00:03:36;8.27;;;3.30;;
4553;SDS011;2289;48.316;15.174;2023-11-21T00:06:06;5.13;;;2.60;;
4553;SDS011;2289;48.316;15.174;2023-11-21T00:08:35;3.00;;;2.00;;
4553;SDS011;2289;48.316;15.174;2023-11-21T00:11:04;2.53;;;2.33;;
4553;SDS011;2289;48.316;15.174;2023-11-21T00:13:33;6.23;;;1.43;;
4553;SDS011;2289;48.316;15.174;2023-11-21T00:16:04;7.70;;;1.70;;
4553;SDS011;2289;48.316;15.174;2023-11-21T00:18:35;2.10;;;1.57;;
4553;SDS011;2289;48.316;15.174;2023-11-21T00:21:06;4.00;;;2.30;;
4553;SDS011;2289;48.316;15.174;2023-11-21T00:23:34;3.53;;;1.70;;
4553;SDS011;2289;48.316;15.174;2023-11-21T00:26:04;3.63;;;1.53;;
4553;SDS011;2289;48.316;15.174;2023-11-21T00:28:34;3.13;;;2.07;;
4553;SDS011;2289;48.316;15.174;2023-11-21T00:31:04;7.67;;;2.70;;
4553;SDS011;2289;48.316;15.174;2023-11-21T00:33:36;4.23;;;2.13;;
4553;SDS011;2289;48.316;15.174;2023-11-21T00:36:05;2.67;;;1.80;;
4553;SDS011;2289;48.316;15.174;2023-11-21T00:38:36;3.80;;;1.97;;
4553;SDS011;2289;48.316;15.174;2023-11-21T00:41:06;5.93;;;1.80;;
4553;SDS011;2289;48.316;15.174;2023-11-21T00:43:38;3.20;;;1.50;;
4553;SDS011;2289;48.316;15.174;2023-11-21T00:46:08;11.73;;;1.70;;
4553;SDS011;2289;48.316;15.174;2023-11-21T00:48:37;2.97;;;1.40;;
4553;SDS011;2289;48.316;15.174;2023-11-21T00:51:06;2.20;;;1.17;;
4553;SDS011;2289;48.316;15.174;2023-11-21T00:53:35;4.60;;;1.10;;
4553;SDS011;2289;48.316;15.174;2023-11-21T00:56:04;4.60;;;1.30;;
4553;SDS011;2289;48.316;15.174;2023-11-21T00:58:35;3.07;;;1.20;;
4553;SDS011;2289;48.316;15.174;2023-11-21T01:01:04;6.47;;;1.47;;
4553;SDS011;2289;48.316;15.174;2023-11-21T01:03:35;3.37;;;1.53;;
4553;SDS011;2289;48.316;15.174;2023-11-21T01:06:04;2.03;;;1.47;;
4553;SDS011;2289;48.316;15.174;2023-11-21T01:08:34;3.33;;;1.90;;
4553;SDS011;2289;48.316;15.174;2023-11-21T01:11:04;2.67;;;1.30;;
4553;SDS011;2289;48.316;15.174;2023-11-21T01:13:35;3.43;;;2.50;;
4553;SDS011;2289;48.316;15.174;2023-11-21T01:16:04;5.17;;;3.40;;
4553;SDS011;2289;48.316;15.174;2023-11-21T01:18:34;7.00;;;4.63;;
4553;SDS011;2289;48.316;15.174;2023-11-21T01:21:04;7.20;;;4.57;;
4553;SDS011;2289;48.316;15.174;2023-11-21T01:23:34;6.40;;;3.70;;
4553;SDS011;2289;48.316;15.174;2023-11-21T01:26:03;6.37;;;3.50;;
4553;SDS011;2289;48.316;15.174;2023-11-21T01:28:32;4.00;;;3.53;;
4553;SDS011;2289;48.316;15.174;2023-11-21T01:31:01;7.60;;;3.37;;
4553;SDS011;2289;48.316;15.174;2023-11-21T01:33:30;3.90;;;3.03;;
4553;SDS011;2289;48.316;15.174;2023-11-21T01:36:00;6.13;;;2.30;;
4553;SDS011;2289;48.316;15.174;2023-11-21T01:38:29;5.20;;;3.10;;
4553;SDS011;2289;48.316;15.174;2023-11-21T01:40:58;2.00;;;1.80;;
4553;SDS011;2289;48.316;15.174;2023-11-21T01:43:27;6.57;;;2.63;;
4553;SDS011;2289;48.316;15.174;2023-11-21T01:45:57;3.90;;;2.87;;
4553;SDS011;2289;48.316;15.174;2023-11-21T01:52:28;2.50;;;2.17;;
4553;SDS011;2289;48.316;15.174;2023-11-21T01:54:57;1.77;;;1.57;;
4553;SDS011;2289;48.316;15.174;2023-11-21T01:57:26;3.43;;;2.50;;
4553;SDS011;2289;48.316;15.174;2023-11-21T01:59:56;4.67;;;2.30;;
4553;SDS011;2289;48.316;15.174;2023-11-21T02:02:27;7.63;;;2.30;;
4553;SDS011;2289;48.316;15.174;2023-11-21T02:04:56;2.80;;;1.93;;
4553;SDS011;2289;48.316;15.174;2023-11-21T02:07:26;1.23;;;1.13;;
4553;SDS011;2289;48.316;15.174;2023-11-21T02:09:57;1.77;;;1.30;;
4553;SDS011;2289;48.316;15.174;2023-11-21T02:12:26;3.97;;;1.50;;
4553;SDS011;2289;48.316;15.174;2023-11-21T02:14:54;3.37;;;1.63;;
4553;SDS011;2289;48.316;15.174;2023-11-21T02:17:23;2.37;;;1.60;;
4553;SDS011;2289;48.316;15.174;2023-11-21T02:19:54;3.17;;;1.37;;
4553;SDS011;2289;48.316;15.174;2023-11-21T02:22:23;2.80;;;1.20;;
4553;SDS011;2289;48.316;15.174;2023-11-21T02:24:55;2.50;;;1.90;;
4553;SDS011;2289;48.316;15.174;2023-11-21T02:27:24;2.70;;;1.23;;
4553;SDS011;2289;48.316;15.174;2023-11-21T02:29:54;1.13;;;1.03;;
4553;SDS011;2289;48.316;15.174;2023-11-21T02:32:22;3.10;;;1.27;;
4553;SDS011;2289;48.316;15.174;2023-11-21T02:34:52;1.33;;;1.23;;
4553;SDS011;2289;48.316;15.174;2023-11-21T02:37:22;4.37;;;1.60;;
4553;SDS011;2289;48.316;15.174;2023-11-21T02:39:52;3.10;;;1.30;;
4553;SDS011;2289;48.316;15.174;2023-11-21T02:42:23;2.30;;;1.60;;
4553;SDS011;2289;48.316;15.174;2023-11-21T02:44:54;7.37;;;2.20;;
4553;SDS011;2289;48.316;15.174;2023-11-21T02:47:24;4.30;;;1.53;;
4553;SDS011;2289;48.316;15.174;2023-11-21T02:49:53;5.47;;;1.90;;
4553;SDS011;2289;48.316;15.174;2023-11-21T02:52:23;4.87;;;1.60;;
4553;SDS011;2289;48.316;15.174;2023-11-21T02:54:52;2.50;;;1.03;;
4553;SDS011;2289;48.316;15.174;2023-11-21T02:57:22;3.10;;;1.33;;
4553;SDS011;2289;48.316;15.174;2023-11-21T02:59:51;2.17;;;1.43;;
4553;SDS011;2289;48.316;15.174;2023-11-21T03:02:23;5.07;;;3.33;;
4553;SDS011;2289;48.316;15.174;2023-11-21T03:04:52;1.80;;;1.47;;
4553;SDS011;2289;48.316;15.174;2023-11-21T03:07:21;1.33;;;0.93;;
4553;SDS011;2289;48.316;15.174;2023-11-21T03:09:50;4.43;;;1.30;;
4553;SDS011;2289;48.316;15.174;2023-11-21T03:12:19;1.53;;;1.27;;
4553;SDS011;2289;48.316;15.174;2023-11-21T03:14:49;3.53;;;1.40;;
4553;SDS011;2289;48.316;15.174;2023-11-21T03:17:18;4.83;;;1.67;;
4553;SDS011;2289;48.316;15.174;2023-11-21T03:19:46;4.80;;;1.70;;
4553;SDS011;2289;48.316;15.174;2023-11-21T03:22:15;5.47;;;2.97;;
4553;SDS011;2289;48.316;15.174;2023-11-21T03:24:44;4.67;;;2.70;;
4553;SDS011;2289;48.316;15.174;2023-11-21T03:27:13;14.50;;;6.03;;
4553;SDS011;2289;48.316;15.174;2023-11-21T03:29:42;5.53;;;4.20;;
4553;SDS011;2289;48.316;15.174;2023-11-21T03:32:13;6.83;;;3.80;;
4553;SDS011;2289;48.316;15.174;2023-11-21T03:34:52;8.90;;;4.20;;
4553;SDS011;2289;48.316;15.174;2023-11-21T03:37:23;3.20;;;2.70;;
4553;SDS011;2289;48.316;15.174;2023-11-21T03:39:55;5.90;;;3.20;;
4553;SDS011;2289;48.316;15.174;2023-11-21T03:42:24;5.53;;;2.80;;
4553;SDS011;2289;48.316;15.174;2023-11-21T03:44:55;3.30;;;1.93;;
4553;SDS011;2289;48.316;15.174;2023-11-21T03:47:26;3.10;;;2.23;;
4553;SDS011;2289;48.316;15.174;2023-11-21T03:49:56;3.43;;;2.20;;
4553;SDS011;2289;48.316;15.174;2023-11-21T03:52:26;3.73;;;2.47;;
4553;SDS011;2289;48.316;15.174;2023-11-21T03:54:56;8.20;;;2.53;;
4553;SDS011;2289;48.316;15.174;2023-11-21T03:57:25;3.00;;;2.57;;
4553;SDS011;2289;48.316;15.174;2023-11-21T03:59:59;4.60;;;1.83;;
4553;SDS011;2289;48.316;15.174;2023-11-21T04:02:32;6.83;;;3.10;;
4553;SDS011;2289;48.316;15.174;2023-11-21T04:05:01;7.37;;;3.27;;
4553;SDS011;2289;48.316;15.174;2023-11-21T04:07:30;3.20;;;2.67;;
4553;SDS011;2289;48.316;15.174;2023-11-21T04:09:59;6.30;;;2.80;;
4553;SDS011;2289;48.316;15.174;2023-11-21T04:12:28;5.80;;;3.80;;
4553;SDS011;2289;48.316;15.174;2023-11-21T04:14:56;9.93;;;2.20;;
4553;SDS011;2289;48.316;15.174;2023-11-21T04:17:25;6.43;;;2.70;;
4553;SDS011;2289;48.316;15.174;2023-11-21T04:19:55;6.30;;;2.00;;
4553;SDS011;2289;48.316;15.174;2023-11-21T04:22:23;10.70;;;2.47;;
4553;SDS011;2289;48.316;15.174;2023-11-21T04:24:55;4.57;;;2.20;;
4553;SDS011;2289;48.316;15.174;2023-11-21T04:27:24;7.23;;;2.00;;
4553;SDS011;2289;48.316;15.174;2023-11-21T04:29:53;4.17;;;2.43;;
4553;SDS011;2289;48.316;15.174;2023-11-21T04:32:22;1.83;;;1.47;;
4553;SDS011;2289;48.316;15.174;2023-11-21T04:34:50;6.93;;;2.10;;
4553;SDS011;2289;48.316;15.174;2023-11-21T04:37:20;4.50;;;2.30;;
4553;SDS011;2289;48.316;15.174;2023-11-21T04:39:49;6.83;;;2.07;;
4553;SDS011;2289;48.316;15.174;2023-11-21T04:42:19;5.97;;;2.10;;
4553;SDS011;2289;48.316;15.174;2023-11-21T04:44:48;4.53;;;1.60;;
4553;SDS011;2289;48.316;15.174;2023-11-21T04:47:17;5.03;;;1.97;;
4553;SDS011;2289;48.316;15.174;2023-11-21T04:49:46;3.90;;;1.97;;
4553;SDS011;2289;48.316;15.174;2023-11-21T04:52:15;3.10;;;2.20;;
4553;SDS011;2289;48.316;15.174;2023-11-21T04:54:45;3.20;;;2.53;;
4553;SDS011;2289;48.316;15.174;2023-11-21T04:57:15;3.93;;;1.93;;
4553;SDS011;2289;48.316;15.174;2023-11-21T04:59:45;4.43;;;1.63;;
4553;SDS011;2289;48.316;15.174;2023-11-21T05:02:13;4.80;;;1.70;;
4553;SDS011;2289;48.316;15.174;2023-11-21T05:05:01;6.70;;;1.30;;
4553;SDS011;2289;48.316;15.174;2023-11-21T05:07:33;15.77;;;2.00;;
4553;SDS011;2289;48.316;15.174;2023-11-21T05:10:05;5.40;;;1.93;;
4553;SDS011;2289;48.316;15.174;2023-11-21T05:12:39;5.80;;;2.10;;
4553;SDS011;2289;48.316;15.174;2023-11-21T05:15:08;3.80;;;1.50;;
4553;SDS011;2289;48.316;15.174;2023-11-21T05:17:38;4.63;;;1.70;;
4553;SDS011;2289;48.316;15.174;2023-11-21T05:20:09;3.83;;;2.97;;
4553;SDS011;2289;48.316;15.174;2023-11-21T05:22:39;1.80;;;1.40;;
4553;SDS011;2289;48.316;15.174;2023-11-21T05:25:10;2.03;;;1.20;;
4553;SDS011;2289;48.316;15.174;2023-11-21T05:27:39;3.03;;;1.40;;
4553;SDS011;2289;48.316;15.174;2023-11-21T05:30:08;6.03;;;2.30;;
4553;SDS011;2289;48.316;15.174;2023-11-21T05:32:39;6.00;;;2.93;;
4553;SDS011;2289;48.316;15.174;2023-11-21T05:35:09;5.87;;;2.97;;
4553;SDS011;2289;48.316;15.174;2023-11-21T05:37:42;10.20;;;2.87;;
4553;SDS011;2289;48.316;15.174;2023-11-21T05:40:14;6.53;;;3.07;;
4553;SDS011;2289;48.316;15.174;2023-11-21T05:42:43;10.20;;;6.73;;
4553;SDS011;2289;48.316;15.174;2023-11-21T05:45:12;10.57;;;6.90;;
4553;SDS011;2289;48.316;15.174;2023-11-21T05:47:42;8.97;;;7.23;;
4553;SDS011;2289;48.316;15.174;2023-11-21T05:50:13;10.20;;;6.00;;
4553;SDS011;2289;48.316;15.174;2023-11-21T05:52:43;5.37;;;4.77;;
4553;SDS011;2289;48.316;15.174;2023-11-21T05:55:14;6.47;;;3.70;;
4553;SDS011;2289;48.316;15.174;2023-11-21T05:57:43;6.77;;;4.17;;
4553;SDS011;2289;48.316;15.174;2023-11-21T06:00:14;4.50;;;3.37;;
4553;SDS011;2289;48.316;15.174;2023-11-21T06:02:48;4.20;;;2.37;;
4553;SDS011;2289;48.316;15.174;2023-11-21T06:05:21;5.13;;;3.33;;
4553;SDS011;2289;48.316;15.174;2023-11-21T06:07:52;4.40;;;1.90;;
4553;SDS011;2289;48.316;15.174;2023-11-21T06:10:25;5.73;;;2.80;;
4553;SDS011;2289;48.316;15.174;2023-11-21T06:12:55;5.40;;;2.90;;
4553;SDS011;2289;48.316;15.174;2023-11-21T06:15:30;2.97;;;2.00;;
4553;SDS011;2289;48.316;15.174;2023-11-21T06:18:01;9.33;;;2.03;;
4553;SDS011;2289;48.316;15.174;2023-11-21T06:20:29;1.73;;;1.37;;
4553;SDS011;2289;48.316;15.174;2023-11-21T06:22:59;1.67;;;1.57;;
4553;SDS011;2289;48.316;15.174;2023-11-21T06:25:32;3.40;;;1.80;;
4553;SDS011;2289;48.316;15.174;2023-11-21T06:28:03;4.90;;;1.90;;
4553;SDS011;2289;48.316;15.174;2023-11-21T06:30:34;5.93;;;2.07;;
4553;SDS011;2289;48.316;15.174;2023-11-21T06:33:03;4.20;;;1.80;;
4553;SDS011;2289;48.316;15.174;2023-11-21T06:35:33;5.53;;;2.03;;
4553;SDS011;2289;48.316;15.174;2023-11-21T06:38:02;3.43;;;2.17;;
4553;SDS011;2289;48.316;15.174;2023-11-21T06:40:32;3.53;;;2.10;;
4553;SDS011;2289;48.316;15.174;2023-11-21T06:43:01;3.10;;;1.90;;
4553;SDS011;2289;48.316;15.174;2023-11-21T06:45:32;6.87;;;2.37;;
4553;SDS011;2289;48.316;15.174;2023-11-21T06:48:03;6.13;;;1.77;;
4553;SDS011;2289;48.316;15.174;2023-11-21T06:50:32;3.80;;;2.23;;
4553;SDS011;2289;48.316;15.174;2023-11-21T06:53:01;3.40;;;1.70;;
4553;SDS011;2289;48.316;15.174;2023-11-21T06:55:35;9.23;;;2.30;;
4553;SDS011;2289;48.316;15.174;2023-11-21T06:58:04;2.27;;;1.40;;
4553;SDS011;2289;48.316;15.174;2023-11-21T07:00:33;2.47;;;1.73;;
4553;SDS011;2289;48.316;15.174;2023-11-21T07:03:02;6.60;;;1.73;;
4553;SDS011;2289;48.316;15.174;2023-11-21T07:05:31;6.90;;;1.70;;
4553;SDS011;2289;48.316;15.174;2023-11-21T07:08:00;1.93;;;1.63;;
4553;SDS011;2289;48.316;15.174;2023-11-21T07:10:31;5.13;;;1.57;;
4553;SDS011;2289;48.316;15.174;2023-11-21T07:13:01;2.30;;;1.43;;
4553;SDS011;2289;48.316;15.174;2023-11-21T07:15:30;8.00;;;2.00;;
4553;SDS011;2289;48.316;15.174;2023-11-21T07:17:58;3.77;;;1.30;;
4553;SDS011;2289;48.316;15.174;2023-11-21T07:20:27;6.83;;;2.00;;
4553;SDS011;2289;48.316;15.174;2023-11-21T07:22:57;4.77;;;1.87;;
4553;SDS011;2289;48.316;15.174;2023-11-21T07:25:29;1.73;;;1.47;;
4553;SDS011;2289;48.316;15.174;2023-11-21T07:27:58;6.23;;;1.83;;
4553;SDS011;2289;48.316;15.174;2023-11-21T07:30:28;4.43;;;1.73;;
4553;SDS011;2289;48.316;15.174;2023-11-21T07:32:58;6.27;;;3.37;;
4553;SDS011;2289;48.316;15.174;2023-11-21T07:35:27;6.13;;;2.83;;
4553;SDS011;2289;48.316;15.174;2023-11-21T07:37:55;3.93;;;2.77;;
4553;SDS011;2289;48.316;15.174;2023-11-21T07:40:25;3.30;;;2.87;;
4553;SDS011;2289;48.316;15.174;2023-11-21T07:42:57;4.20;;;3.07;;
4553;SDS011;2289;48.316;15.174;2023-11-21T07:45:28;12.20;;;5.70;;
4553;SDS011;2289;48.316;15.174;2023-11-21T07:47:59;7.57;;;5.30;;
4553;SDS011;2289;48.316;15.174;2023-11-21T07:50:27;12.63;;;7.43;;
4553;SDS011;2289;48.316;15.174;2023-11-21T07:52:56;17.63;;;7.87;;
4553;SDS011;2289;48.316;15.174;2023-11-21T07:55:26;12.00;;;7.60;;
4553;SDS011;2289;48.316;15.174;2023-11-21T07:57:59;15.43;;;7.80;;
4553;SDS011;2289;48.316;15.174;2023-11-21T08:00:30;12.80;;;6.53;;
4553;SDS011;2289;48.316;15.174;2023-11-21T08:02:59;15.60;;;8.13;;
4553;SDS011;2289;48.316;15.174;2023-11-21T08:05:28;22.73;;;11.87;;
4553;SDS011;2289;48.316;15.174;2023-11-21T08:08:03;11.40;;;8.83;;
4553;SDS011;2289;48.316;15.174;2023-11-21T08:10:32;14.70;;;8.70;;
4553;SDS011;2289;48.316;15.174;2023-11-21T08:13:02;16.43;;;7.83;;
4553;SDS011;2289;48.316;15.174;2023-11-21T08:15:33;16.73;;;8.93;;
4553;SDS011;2289;48.316;15.174;2023-11-21T08:18:03;17.40;;;10.30;;
4553;SDS011;2289;48.316;15.174;2023-11-21T08:20:35;16.43;;;10.37;;
4553;SDS011;2289;48.316;15.174;2023-11-21T08:23:06;28.00;;;12.20;;
4553;SDS011;2289;48.316;15.174;2023-11-21T08:25:35;19.77;;;13.00;;
4553;SDS011;2289;48.316;15.174;2023-11-21T08:28:04;21.57;;;14.20;;
4553;SDS011;2289;48.316;15.174;2023-11-21T08:30:38;21.00;;;12.70;;
4553;SDS011;2289;48.316;15.174;2023-11-21T08:33:08;16.43;;;11.57;;
4553;SDS011;2289;48.316;15.174;2023-11-21T08:35:38;23.50;;;10.07;;
4553;SDS011;2289;48.316;15.174;2023-11-21T08:38:07;5.60;;;3.13;;
4553;SDS011;2289;48.316;15.174;2023-11-21T08:40:37;5.73;;;3.80;;
4553;SDS011;2289;48.316;15.174;2023-11-21T08:43:05;5.67;;;2.00;;
4553;SDS011;2289;48.316;15.174;2023-11-21T08:45:35;7.40;;;3.07;;
4553;SDS011;2289;48.316;15.174;2023-11-21T08:48:05;5.20;;;2.17;;
4553;SDS011;2289;48.316;15.174;2023-11-21T08:50:36;5.30;;;1.77;;
4553;SDS011;2289;48.316;15.174;2023-11-21T08:53:04;5.23;;;2.07;;
4553;SDS011;2289;48.316;15.174;2023-11-21T08:55:33;2.47;;;1.67;;
4553;SDS011;2289;48.316;15.174;2023-11-21T08:58:04;4.10;;;1.73;;
4553;SDS011;2289;48.316;15.174;2023-11-21T09:00:34;4.13;;;1.70;;
4553;SDS011;2289;48.316;15.174;2023-11-21T09:03:07;5.47;;;1.63;;
4553;SDS011;2289;48.316;15.174;2023-11-21T09:05:37;3.53;;;1.57;;
4553;SDS011;2289;48.316;15.174;2023-11-21T09:08:07;6.50;;;1.60;;
4553;SDS011;2289;48.316;15.174;2023-11-21T09:10:36;1.57;;;1.33;;
4553;SDS011;2289;48.316;15.174;2023-11-21T09:13:06;4.60;;;2.07;;
4553;SDS011;2289;48.316;15.174;2023-11-21T09:15:36;4.07;;;1.87;;
4553;SDS011;2289;48.316;15.174;2023-11-21T09:18:06;2.20;;;1.43;;
4553;SDS011;2289;48.316;15.174;2023-11-21T09:20:35;2.50;;;1.30;;
4553;SDS011;2289;48.316;15.174;2023-11-21T09:23:05;4.53;;;1.87;;
4553;SDS011;2289;48.316;15.174;2023-11-21T09:25:35;3.00;;;1.10;;
4553;SDS011;2289;48.316;15.174;2023-11-21T09:28:05;3.37;;;1.23;;
4553;SDS011;2289;48.316;15.174;2023-11-21T09:30:35;2.97;;;1.30;;
4553;SDS011;2289;48.316;15.174;2023-11-21T09:33:09;2.83;;;2.10;;
4553;SDS011;2289;48.316;15.174;2023-11-21T09:35:38;4.90;;;1.67;;
4553;SDS011;2289;48.316;15.174;2023-11-21T09:38:07;3.30;;;1.47;;
4553;SDS011;2289;48.316;15.174;2023-11-21T09:40:38;4.10;;;1.43;;
4553;SDS011;2289;48.316;15.174;2023-11-21T09:43:08;1.50;;;1.17;;
4553;SDS011;2289;48.316;15.174;2023-11-21T09:45:45;1.37;;;1.27;;
4553;SDS011;2289;48.316;15.174;2023-11-21T09:48:17;4.03;;;1.70;;
4553;SDS011;2289;48.316;15.174;2023-11-21T09:50:47;1.70;;;1.57;;
4553;SDS011;2289;48.316;15.174;2023-11-21T09:53:19;6.63;;;1.43;;
4553;SDS011;2289;48.316;15.174;2023-11-21T09:55:51;4.97;;;1.20;;
4553;SDS011;2289;48.316;15.174;2023-11-21T09:58:21;2.27;;;1.30;;
4553;SDS011;2289;48.316;15.174;2023-11-21T10:00:52;1.43;;;1.23;;
4553;SDS011;2289;48.316;15.174;2023-11-21T10:03:24;3.53;;;1.60;;
4553;SDS011;2289;48.316;15.174;2023-11-21T10:05:54;3.77;;;1.63;;
4553;SDS011;2289;48.316;15.174;2023-11-21T10:08:26;2.93;;;1.43;;
4553;SDS011;2289;48.316;15.174;2023-11-21T10:11:15;2.70;;;1.60;;
4553;SDS011;2289;48.316;15.174;2023-11-21T10:13:46;4.63;;;1.70;;
4553;SDS011;2289;48.316;15.174;2023-11-21T10:16:14;2.13;;;1.40;;
4553;SDS011;2289;48.316;15.174;2023-11-21T10:18:46;8.23;;;1.70;;
4553;SDS011;2289;48.316;15.174;2023-11-21T10:21:15;1.80;;;1.50;;
4553;SDS011;2289;48.316;15.174;2023-11-21T10:23:44;2.60;;;1.83;;
4553;SDS011;2289;48.316;15.174;2023-11-21T10:26:13;3.03;;;1.50;;
4553;SDS011;2289;48.316;15.174;2023-11-21T10:28:57;2.20;;;1.33;;
4553;SDS011;2289;48.316;15.174;2023-11-21T10:31:26;3.13;;;1.50;;
4553;SDS011;2289;48.316;15.174;2023-11-21T10:33:57;2.03;;;1.40;;
4553;SDS011;2289;48.316;15.174;2023-11-21T10:36:44;4.23;;;1.50;;
4553;SDS011;2289;48.316;15.174;2023-11-21T10:39:16;1.80;;;1.27;;
4553;SDS011;2289;48.316;15.174;2023-11-21T10:41:46;4.03;;;1.47;;
4553;SDS011;2289;48.316;15.174;2023-11-21T10:44:16;3.63;;;1.40;;
4553;SDS011;2289;48.316;15.174;2023-11-21T10:46:49;2.80;;;1.50;;
4553;SDS011;2289;48.316;15.174;2023-11-21T10:49:20;1.10;;;0.97;;
4553;SDS011;2289;48.316;15.174;2023-11-21T10:51:49;3.70;;;1.30;;
4553;SDS011;2289;48.316;15.174;2023-11-21T10:54:19;1.60;;;1.50;;
4553;SDS011;2289;48.316;15.174;2023-11-21T10:56:49;1.50;;;1.40;;
4553;SDS011;2289;48.316;15.174;2023-11-21T10:59:19;4.90;;;1.97;;
4553;SDS011;2289;48.316;15.174;2023-11-21T11:01:52;3.53;;;2.80;;
4553;SDS011;2289;48.316;15.174;2023-11-21T11:04:23;2.80;;;2.47;;
4553;SDS011;2289;48.316;15.174;2023-11-21T11:06:54;2.50;;;1.87;;
4553;SDS011;2289;48.316;15.174;2023-11-21T11:09:24;4.27;;;1.40;;
4553;SDS011;2289;48.316;15.174;2023-11-21T11:11:53;2.70;;;1.30;;
4553;SDS011;2289;48.316;15.174;2023-11-21T11:14:22;3.70;;;1.60;;
4553;SDS011;2289;48.316;15.174;2023-11-21T11:16:53;1.10;;;0.90;;
4553;SDS011;2289;48.316;15.174;2023-11-21T11:19:25;1.70;;;1.50;;
4553;SDS011;2289;48.316;15.174;2023-11-21T11:24:57;2.30;;;1.13;;
4553;SDS011;2289;48.316;15.174;2023-11-21T11:27:34;4.53;;;1.10;;
4553;SDS011;2289;48.316;15.174;2023-11-21T11:30:16;2.13;;;2.03;;
4553;SDS011;2289;48.316;15.174;2023-11-21T11:32:58;5.23;;;2.07;;
4553;SDS011;2289;48.316;15.174;2023-11-21T11:35:41;2.90;;;1.30;;
4553;SDS011;2289;48.316;15.174;2023-11-21T11:38:15;2.13;;;1.50;;
4553;SDS011;2289;48.316;15.174;2023-11-21T11:40:48;2.27;;;1.83;;
4553;SDS011;2289;48.316;15.174;2023-11-21T11:43:25;7.57;;;1.53;;
4553;SDS011;2289;48.316;15.174;2023-11-21T11:45:55;2.80;;;1.67;;
4553;SDS011;2289;48.316;15.174;2023-11-21T11:48:26;2.00;;;1.63;;
4553;SDS011;2289;48.316;15.174;2023-11-21T11:51:05;1.80;;;1.23;;
4553;SDS011;2289;48.316;15.174;2023-11-21T11:53:36;1.40;;;1.30;;
4553;SDS011;2289;48.316;15.174;2023-11-21T11:56:26;1.70;;;1.30;;
4553;SDS011;2289;48.316;15.174;2023-11-21T11:58:58;3.73;;;2.00;;
4553;SDS011;2289;48.316;15.174;2023-11-21T12:01:30;1.90;;;1.60;;
4553;SDS011;2289;48.316;15.174;2023-11-21T12:07:04;1.70;;;1.50;;
4553;SDS011;2289;48.316;15.174;2023-11-21T12:09:33;2.30;;;1.50;;
4553;SDS011;2289;48.316;15.174;2023-11-21T12:12:06;3.63;;;0.97;;
4553;SDS011;2289;48.316;15.174;2023-11-21T12:14:35;1.10;;;1.00;;
4553;SDS011;2289;48.316;15.174;2023-11-21T12:17:04;1.00;;;1.00;;
4553;SDS011;2289;48.316;15.174;2023-11-21T12:19:34;2.13;;;1.33;;
4553;SDS011;2289;48.316;15.174;2023-11-21T12:22:06;1.77;;;1.17;;
4553;SDS011;2289;48.316;15.174;2023-11-21T12:24:36;4.30;;;2.13;;
4553;SDS011;2289;48.316;15.174;2023-11-21T12:27:05;3.40;;;1.90;;
4553;SDS011;2289;48.316;15.174;2023-11-21T12:29:35;2.80;;;1.97;;
4553;SDS011;2289;48.316;15.174;2023-11-21T12:32:05;3.93;;;2.60;;
4553;SDS011;2289;48.316;15.174;2023-11-21T12:34:34;1.90;;;1.80;;
4553;SDS011;2289;48.316;15.174;2023-11-21T12:37:08;1.90;;;1.70;;
4553;SDS011;2289;48.316;15.174;2023-11-21T12:39:37;2.53;;;2.10;;
4553;SDS011;2289;48.316;15.174;2023-11-21T12:42:07;5.27;;;3.37;;
4553;SDS011;2289;48.316;15.174;2023-11-21T12:44:37;2.60;;;2.00;;
4553;SDS011;2289;48.316;15.174;2023-11-21T12:47:10;3.23;;;2.20;;
4553;SDS011;2289;48.316;15.174;2023-11-21T12:49:41;4.10;;;2.40;;
4553;SDS011;2289;48.316;15.174;2023-11-21T12:52:13;3.60;;;2.10;;
4553;SDS011;2289;48.316;15.174;2023-11-21T12:54:41;1.57;;;1.20;;
4553;SDS011;2289;48.316;15.174;2023-11-21T12:57:11;3.20;;;1.90;;
4553;SDS011;2289;48.316;15.174;2023-11-21T12:59:39;1.40;;;1.30;;
4553;SDS011;2289;48.316;15.174;2023-11-21T13:02:09;2.80;;;1.60;;
4553;SDS011;2289;48.316;15.174;2023-11-21T13:04:42;2.07;;;1.83;;
4553;SDS011;2289;48.316;15.174;2023-11-21T13:07:12;1.87;;;1.27;;
4553;SDS011;2289;48.316;15.174;2023-11-21T13:09:41;2.10;;;1.87;;
4553;SDS011;2289;48.316;15.174;2023-11-21T13:12:14;4.47;;;1.80;;
4553;SDS011;2289;48.316;15.174;2023-11-21T13:14:45;2.37;;;2.00;;
4553;SDS011;2289;48.316;15.174;2023-11-21T13:17:15;1.43;;;1.17;;
4553;SDS011;2289;48.316;15.174;2023-11-21T13:19:43;1.10;;;1.00;;
4553;SDS011;2289;48.316;15.174;2023-11-21T13:22:15;1.70;;;1.30;;
4553;SDS011;2289;48.316;15.174;2023-11-21T13:24:45;2.03;;;1.20;;
4553;SDS011;2289;48.316;15.174;2023-11-21T13:27:14;1.33;;;1.20;;
4553;SDS011;2289;48.316;15.174;2023-11-21T13:29:43;1.20;;;1.10;;
4553;SDS011;2289;48.316;15.174;2023-11-21T13:32:12;1.80;;;1.37;;
4553;SDS011;2289;48.316;15.174;2023-11-21T13:34:43;3.10;;;1.73;;
4553;SDS011;2289;48.316;15.174;2023-11-21T13:37:15;2.43;;;2.00;;
4553;SDS011;2289;48.316;15.174;2023-11-21T13:39:44;11.67;;;5.00;;
4553;SDS011;2289;48.316;15.174;2023-11-21T13:42:18;11.73;;;5.57;;
4553;SDS011;2289;48.316;15.174;2023-11-21T13:44:49;17.00;;;4.97;;
4553;SDS011;2289;48.316;15.174;2023-11-21T13:47:24;8.20;;;4.60;;
4553;SDS011;2289;48.316;15.174;2023-11-21T13:49:56;10.10;;;5.10;;
4553;SDS011;2289;48.316;15.174;2023-11-21T13:52:29;5.60;;;4.63;;
4553;SDS011;2289;48.316;15.174;2023-11-21T13:55:00;8.43;;;4.70;;
4553;SDS011;2289;48.316;15.174;2023-11-21T13:57:33;6.37;;;5.27;;
4553;SDS011;2289;48.316;15.174;2023-11-21T14:00:01;13.00;;;6.83;;
4553;SDS011;2289;48.316;15.174;2023-11-21T14:02:38;6.73;;;4.80;;
4553;SDS011;2289;48.316;15.174;2023-11-21T14:05:09;7.13;;;6.43;;
4553;SDS011;2289;48.316;15.174;2023-11-21T14:07:43;11.87;;;8.50;;
4553;SDS011;2289;48.316;15.174;2023-11-21T14:10:15;9.00;;;7.63;;
4553;SDS011;2289;48.316;15.174;2023-11-21T14:12:49;5.80;;;5.20;;
4553;SDS011;2289;48.316;15.174;2023-11-21T14:15:17;6.83;;;5.70;;
4553;SDS011;2289;48.316;15.174;2023-11-21T14:17:47;8.50;;;5.80;;
4553;SDS011;2289;48.316;15.174;2023-11-21T14:20:19;28.00;;;14.07;;
4553;SDS011;2289;48.316;15.174;2023-11-21T14:22:50;31.70;;;18.67;;
4553;SDS011;2289;48.316;15.174;2023-11-21T14:25:18;45.33;;;24.87;;
4553;SDS011;2289;48.316;15.174;2023-11-21T14:27:48;54.23;;;30.07;;
4553;SDS011;2289;48.316;15.174;2023-11-21T14:30:17;58.53;;;29.00;;
4553;SDS011;2289;48.316;15.174;2023-11-21T14:32:49;53.00;;;23.03;;
4553;SDS011;2289;48.316;15.174;2023-11-21T14:35:18;37.70;;;20.07;;
4553;SDS011;2289;48.316;15.174;2023-11-21T14:37:47;34.23;;;17.70;;
4553;SDS011;2289;48.316;15.174;2023-11-21T14:40:18;25.63;;;13.63;;
4553;SDS011;2289;48.316;15.174;2023-11-21T14:42:52;15.87;;;9.90;;
4553;SDS011;2289;48.316;15.174;2023-11-21T14:45:24;14.97;;;9.13;;
4553;SDS011;2289;48.316;15.174;2023-11-21T14:47:54;9.37;;;4.80;;
4553;SDS011;2289;48.316;15.174;2023-11-21T14:50:33;6.80;;;5.33;;
4553;SDS011;2289;48.316;15.174;2023-11-21T14:53:24;9.30;;;5.10;;
4553;SDS011;2289;48.316;15.174;2023-11-21T14:56:10;8.30;;;5.53;;
4553;SDS011;2289;48.316;15.174;2023-11-21T14:58:48;10.40;;;5.40;;
4553;SDS011;2289;48.316;15.174;2023-11-21T15:01:16;12.10;;;4.90;;
4553;SDS011;2289;48.316;15.174;2023-11-21T15:03:54;8.60;;;3.50;;
4553;SDS011;2289;48.316;15.174;2023-11-21T15:06:22;3.80;;;3.50;;
4553;SDS011;2289;48.316;15.174;2023-11-21T15:08:58;4.63;;;3.27;;
4553;SDS011;2289;48.316;15.174;2023-11-21T15:11:44;5.57;;;4.07;;
4553;SDS011;2289;48.316;15.174;2023-11-21T15:14:14;7.80;;;4.60;;
4553;SDS011;2289;48.316;15.174;2023-11-21T15:16:48;5.53;;;3.00;;
4553;SDS011;2289;48.316;15.174;2023-11-21T15:19:20;4.20;;;3.80;;
4553;SDS011;2289;48.316;15.174;2023-11-21T15:21:53;9.20;;;2.47;;
4553;SDS011;2289;48.316;15.174;2023-11-21T15:24:23;5.57;;;2.50;;
4553;SDS011;2289;48.316;15.174;2023-11-21T15:26:52;3.07;;;2.50;;
4553;SDS011;2289;48.316;15.174;2023-11-21T15:29:23;2.53;;;2.33;;